createdAt,value
2023-08-04T02:36:56.239Z,22.04
2023-08-04T02:39:26.398Z,22.46
2023-08-04T02:42:02.349Z,22.60
2023-08-04T02:44:33.255Z,22.45
2023-08-04T02:47:03.493Z,23.02
2023-08-04T02:49:34.406Z,22.86
2023-08-04T02:52:04.345Z,23.27
2023-08-04T02:54:35.510Z,23.38
2023-08-04T02:57:04.874Z,23.30
2023-08-04T02:59:34.633Z,23.78
2023-08-04T03:02:03.714Z,24.19
2023-08-04T03:04:32.778Z,24.32
2023-08-04T03:07:01.972Z,24.53
2023-08-04T03:09:31.667Z,24.67
2023-08-04T03:12:00.551Z,24.83
2023-08-04T03:14:32.650Z,24.39
2023-08-04T03:17:03.461Z,24.91
2023-08-04T03:19:32.565Z,25.04
2023-08-04T03:22:01.537Z,24.58
2023-08-04T03:24:32.447Z,24.31
2023-08-04T03:27:04.358Z,23.77
2023-08-04T03:29:33.394Z,24.28
2023-08-04T03:32:02.620Z,24.99
2023-08-04T03:34:31.684Z,25.00
2023-08-04T03:37:00.871Z,24.33
2023-08-04T03:39:31.221Z,24.07
2023-08-04T03:42:00.540Z,24.23
2023-08-04T03:44:37.372Z,24.22
2023-08-04T03:47:07.101Z,24.15
2023-08-04T03:49:36.333Z,23.69
2023-08-04T03:52:05.830Z,24.05
2023-08-04T03:54:34.888Z,24.69
2023-08-04T03:57:04.673Z,24.22
2023-08-04T03:59:33.541Z,25.31
2023-08-04T04:02:02.697Z,25.01
2023-08-04T04:04:31.766Z,24.83
2023-08-04T04:07:00.759Z,24.88
2023-08-04T04:09:32.109Z,24.87
2023-08-04T04:12:01.109Z,26.39
2023-08-04T04:14:30.170Z,26.18
2023-08-04T04:16:59.183Z,27.18
2023-08-04T04:19:28.378Z,26.84
2023-08-04T04:22:00.032Z,26.03
2023-08-04T04:24:29.402Z,26.97
2023-08-04T04:27:01.313Z,27.87
2023-08-04T04:29:30.764Z,27.72
2023-08-04T04:31:59.812Z,26.55
2023-08-04T04:34:29.537Z,25.77
2023-08-04T04:37:00.815Z,26.48
2023-08-04T04:39:33.013Z,27.75
2023-08-04T04:42:02.172Z,27.39
2023-08-04T04:44:32.004Z,28.11
2023-08-04T04:47:01.839Z,27.88
2023-08-04T04:49:31.806Z,27.81
2023-08-04T04:52:00.909Z,27.73
2023-08-04T04:54:29.981Z,28.08
2023-08-04T04:56:59.010Z,28.08
2023-08-04T04:59:29.073Z,28.89
2023-08-04T05:01:58.440Z,29.10
2023-08-04T05:04:27.505Z,29.62
2023-08-04T05:06:56.460Z,29.73
2023-08-04T05:09:25.500Z,29.63
2023-08-04T05:11:54.812Z,30.04
2023-08-04T05:14:24.735Z,29.45
2023-08-04T05:16:54.285Z,29.16
2023-08-04T05:19:23.610Z,28.63
2023-08-04T05:21:52.603Z,28.76
2023-08-04T05:24:21.566Z,28.86
2023-08-04T05:26:50.750Z,28.98
2023-08-04T05:29:19.764Z,27.96
2023-08-04T05:31:49.672Z,28.81
2023-08-04T05:34:18.963Z,28.96
2023-08-04T05:36:48.000Z,29.16
2023-08-04T05:39:16.988Z,30.07
2023-08-04T05:41:47.522Z,29.51
2023-08-04T05:44:16.762Z,29.15
2023-08-04T05:46:45.813Z,29.68
2023-08-04T05:49:14.810Z,29.37
2023-08-04T05:51:43.740Z,29.67
2023-08-04T05:54:12.716Z,29.71
2023-08-04T05:56:41.947Z,29.80
2023-08-04T05:59:29.372Z,29.57
2023-08-04T06:01:59.173Z,30.29
2023-08-04T06:04:28.167Z,27.90
2023-08-04T06:06:59.419Z,28.82
2023-08-04T06:09:28.442Z,29.44
2023-08-04T06:11:57.516Z,29.02
2023-08-04T06:14:26.631Z,28.79
2023-08-04T06:16:56.398Z,28.59
2023-08-04T06:19:43.502Z,28.97
2023-08-04T06:22:15.503Z,28.24
2023-08-04T06:24:44.763Z,27.71
2023-08-04T06:27:14.136Z,29.45
2023-08-04T06:29:43.061Z,30.33
2023-08-04T06:32:12.798Z,29.69
2023-08-04T06:34:42.611Z,28.47
2023-08-04T06:37:11.622Z,27.65
2023-08-04T06:39:40.485Z,27.39
2023-08-04T06:42:09.585Z,27.44
2023-08-04T06:44:39.125Z,27.26
2023-08-04T06:47:08.395Z,27.62
2023-08-04T06:49:38.060Z,27.76
2023-08-04T06:52:07.659Z,28.64
2023-08-04T06:54:37.397Z,30.87
2023-08-04T06:57:07.600Z,31.23
2023-08-04T06:59:55.436Z,29.39
2023-08-04T07:02:44.314Z,28.40
2023-08-04T07:05:13.990Z,28.26
2023-08-04T07:07:43.059Z,29.22
2023-08-04T07:10:12.958Z,28.03
2023-08-04T07:12:41.936Z,28.05
2023-08-04T07:15:11.238Z,30.09
2023-08-04T07:17:40.669Z,29.64
2023-08-04T07:20:11.141Z,28.16
2023-08-04T07:22:40.386Z,27.43
2023-08-04T07:25:09.952Z,26.86
2023-08-04T07:27:39.053Z,26.63
2023-08-04T07:30:13.270Z,26.10
2023-08-04T07:32:44.881Z,26.55
2023-08-04T07:35:13.909Z,26.34
2023-08-04T07:37:46.777Z,26.46
2023-08-04T07:40:15.989Z,25.70
2023-08-04T07:42:45.418Z,25.78
2023-08-04T07:45:14.519Z,25.63
2023-08-04T07:47:43.704Z,25.99
2023-08-04T07:50:13.057Z,26.09
2023-08-04T07:52:42.016Z,28.43
2023-08-04T07:55:12.840Z,28.22
2023-08-04T07:57:41.952Z,29.72
2023-08-04T08:00:12.105Z,29.04
2023-08-04T08:02:41.101Z,29.90
2023-08-04T08:05:10.546Z,30.96
2023-08-04T08:07:45.514Z,30.98
2023-08-04T08:10:17.065Z,31.73
2023-08-04T08:12:46.454Z,30.86
2023-08-04T08:15:15.535Z,28.79
2023-08-04T08:17:44.800Z,28.14
2023-08-04T08:23:17.406Z,26.37
2023-08-04T08:25:49.099Z,25.90
2023-08-04T08:28:18.096Z,25.87
2023-08-04T08:30:47.222Z,25.59
2023-08-04T08:33:16.356Z,25.37
2023-08-04T08:35:45.394Z,25.03
2023-08-04T08:38:14.451Z,25.40
2023-08-04T08:41:01.687Z,26.00
2023-08-04T08:43:32.373Z,26.10
2023-08-04T08:46:01.527Z,26.92
2023-08-04T08:48:37.137Z,26.27
2023-08-04T08:51:22.312Z,25.96
2023-08-04T08:53:52.165Z,25.36
2023-08-04T08:56:22.181Z,24.77
2023-08-04T08:58:51.425Z,24.39
2023-08-04T09:01:21.710Z,24.08
2023-08-04T09:03:50.788Z,23.83
2023-08-04T09:06:22.374Z,23.25
2023-08-04T09:08:52.500Z,23.00
2023-08-04T09:11:22.265Z,22.95
2023-08-04T09:13:51.844Z,22.92
2023-08-04T09:16:38.554Z,22.57
2023-08-04T09:19:09.656Z,22.90
2023-08-04T09:21:39.631Z,22.89
2023-08-04T09:24:12.640Z,22.68
2023-08-04T09:26:46.028Z,22.26
2023-08-04T09:29:16.601Z,22.18
2023-08-04T09:31:50.877Z,22.04
2023-08-04T09:34:20.812Z,21.83
2023-08-04T09:36:53.408Z,21.18
2023-08-04T09:39:26.580Z,20.71
2023-08-04T09:41:57.009Z,20.57
2023-08-04T09:44:42.773Z,20.45
2023-08-04T09:47:12.732Z,20.34
2023-08-04T09:49:42.635Z,19.76
2023-08-04T09:52:12.452Z,19.79
2023-08-04T09:54:41.605Z,19.97
2023-08-04T09:57:11.632Z,20.01
2023-08-04T09:59:42.586Z,19.57
2023-08-04T10:02:12.790Z,19.29
2023-08-04T10:04:43.848Z,19.10
2023-08-04T10:07:13.448Z,19.11
2023-08-04T10:09:43.476Z,19.21
2023-08-04T10:12:15.307Z,19.07
2023-08-04T10:14:45.627Z,18.91
2023-08-04T10:17:15.897Z,18.75
2023-08-04T10:19:45.241Z,18.42
2023-08-04T10:22:15.907Z,18.27
2023-08-04T10:24:45.206Z,18.58
2023-08-04T10:27:24.316Z,18.67
2023-08-04T10:30:15.592Z,18.56
2023-08-04T10:32:46.048Z,18.43
2023-08-04T10:35:33.668Z,18.48
2023-08-04T10:38:05.346Z,18.54
2023-08-04T10:40:35.837Z,18.54
2023-08-04T10:43:10.738Z,18.53
2023-08-04T10:46:04.986Z,18.41
2023-08-04T10:48:38.698Z,18.78
2023-08-04T10:51:08.791Z,18.73
2023-08-04T10:53:38.408Z,18.60
2023-08-04T10:56:09.409Z,18.70
2023-08-04T10:58:40.742Z,18.73
2023-08-04T11:01:09.883Z,18.92
2023-08-04T11:03:39.296Z,19.15
2023-08-04T11:06:09.416Z,19.36
2023-08-04T11:08:38.620Z,19.40
2023-08-04T11:11:09.045Z,19.28
2023-08-04T11:13:42.089Z,19.23
2023-08-04T11:16:11.329Z,19.13
2023-08-04T11:18:42.244Z,19.20
2023-08-04T11:21:11.691Z,19.23
2023-08-04T11:23:40.739Z,19.46
2023-08-04T11:26:11.643Z,19.44
2023-08-04T11:28:40.803Z,19.71
2023-08-04T11:31:11.674Z,20.10
2023-08-04T11:33:48.944Z,20.18
2023-08-04T11:36:41.447Z,20.45
2023-08-04T11:39:13.071Z,20.43
2023-08-04T11:41:46.516Z,20.44
2023-08-04T11:44:18.408Z,20.59
2023-08-04T11:46:47.939Z,20.61
2023-08-04T11:49:17.740Z,20.48
2023-08-04T11:51:48.135Z,20.48
2023-08-04T11:54:29.112Z,20.46
2023-08-04T11:57:01.454Z,20.31
2023-08-04T11:59:32.088Z,20.12
2023-08-04T12:02:12.887Z,20.30
2023-08-04T12:04:42.489Z,20.30
2023-08-04T12:07:12.826Z,20.40
2023-08-04T12:09:47.165Z,20.49
2023-08-04T12:12:18.186Z,20.26
2023-08-04T12:15:01.565Z,20.34
2023-08-04T12:17:45.608Z,20.36
2023-08-04T12:20:33.947Z,20.44
2023-08-04T12:23:15.937Z,20.46
2023-08-04T12:25:44.962Z,20.52
2023-08-04T12:28:14.339Z,20.42
2023-08-04T12:30:43.365Z,20.44
2023-08-04T12:33:19.339Z,20.56
2023-08-04T12:35:48.602Z,20.63
2023-08-04T12:38:18.768Z,20.65
2023-08-04T12:40:50.180Z,20.35
2023-08-04T12:43:19.171Z,20.44
2023-08-04T12:45:49.530Z,20.42
2023-08-04T12:48:19.654Z,20.15
2023-08-04T12:50:48.782Z,20.37
2023-08-04T12:53:17.988Z,20.28
2023-08-04T12:55:48.145Z,20.28
2023-08-04T12:58:17.198Z,20.35
2023-08-04T13:00:46.293Z,20.28
2023-08-04T13:03:15.595Z,20.26
2023-08-04T13:05:44.763Z,20.38
2023-08-04T13:08:13.963Z,20.16
2023-08-04T13:10:43.288Z,20.10
2023-08-04T13:13:12.558Z,20.13
2023-08-04T13:15:49.403Z,20.10
2023-08-04T13:18:19.514Z,20.00
2023-08-04T13:20:49.467Z,19.81
2023-08-04T13:23:19.003Z,19.92
2023-08-04T13:25:49.171Z,19.11
2023-08-04T13:28:18.145Z,19.36
2023-08-04T13:30:47.513Z,19.41
2023-08-04T13:33:16.725Z,19.52
